sensor_id;sensor_type;location;lat;lon;timestamp;P1;durP1;ratioP1;P2;durP2;ratioP2
30398;SDS011;17195;50.838;7.214;2022-12-07T00:00:16;36.15;;;22.00;;
30398;SDS011;17195;50.838;7.214;2022-12-07T00:02:42;38.83;;;24.42;;
30398;SDS011;17195;50.838;7.214;2022-12-07T00:05:08;37.35;;;21.70;;
30398;SDS011;17195;50.838;7.214;2022-12-07T00:07:33;38.22;;;23.75;;
30398;SDS011;17195;50.838;7.214;2022-12-07T00:09:59;40.60;;;22.50;;
30398;SDS011;17195;50.838;7.214;2022-12-07T00:12:24;39.38;;;24.13;;
30398;SDS011;17195;50.838;7.214;2022-12-07T00:14:50;41.17;;;25.10;;
30398;SDS011;17195;50.838;7.214;2022-12-07T00:17:15;41.60;;;24.15;;
30398;SDS011;17195;50.838;7.214;2022-12-07T00:19:41;44.20;;;24.38;;
30398;SDS011;17195;50.838;7.214;2022-12-07T00:22:06;45.10;;;24.05;;
30398;SDS011;17195;50.838;7.214;2022-12-07T00:24:32;46.85;;;24.63;;
30398;SDS011;17195;50.838;7.214;2022-12-07T00:26:57;43.15;;;25.10;;
30398;SDS011;17195;50.838;7.214;2022-12-07T00:29:23;43.00;;;24.35;;
30398;SDS011;17195;50.838;7.214;2022-12-07T00:31:49;42.20;;;24.85;;
30398;SDS011;17195;50.838;7.214;2022-12-07T00:34:16;41.00;;;23.63;;
30398;SDS011;17195;50.838;7.214;2022-12-07T00:36:43;43.30;;;25.50;;
30398;SDS011;17195;50.838;7.214;2022-12-07T00:39:09;49.13;;;26.67;;
30398;SDS011;17195;50.838;7.214;2022-12-07T00:41:34;43.13;;;26.50;;
30398;SDS011;17195;50.838;7.214;2022-12-07T00:44:00;43.35;;;24.92;;
30398;SDS011;17195;50.838;7.214;2022-12-07T00:46:25;48.45;;;25.55;;
30398;SDS011;17195;50.838;7.214;2022-12-07T00:48:52;42.08;;;25.23;;
30398;SDS011;17195;50.838;7.214;2022-12-07T00:51:19;41.65;;;25.20;;
30398;SDS011;17195;50.838;7.214;2022-12-07T00:53:46;38.55;;;24.27;;
30398;SDS011;17195;50.838;7.214;2022-12-07T00:56:12;39.40;;;24.25;;
30398;SDS011;17195;50.838;7.214;2022-12-07T00:58:42;39.35;;;23.98;;
30398;SDS011;17195;50.838;7.214;2022-12-07T01:01:09;44.08;;;24.23;;
30398;SDS011;17195;50.838;7.214;2022-12-07T01:03:35;39.55;;;23.02;;
30398;SDS011;17195;50.838;7.214;2022-12-07T01:06:02;38.05;;;22.27;;
30398;SDS011;17195;50.838;7.214;2022-12-07T01:08:28;47.03;;;26.40;;
30398;SDS011;17195;50.838;7.214;2022-12-07T01:11:01;42.67;;;24.05;;
30398;SDS011;17195;50.838;7.214;2022-12-07T01:13:33;37.65;;;23.48;;
30398;SDS011;17195;50.838;7.214;2022-12-07T01:15:59;43.67;;;25.20;;
30398;SDS011;17195;50.838;7.214;2022-12-07T01:18:27;39.83;;;24.40;;
30398;SDS011;17195;50.838;7.214;2022-12-07T01:23:27;48.63;;;27.85;;
30398;SDS011;17195;50.838;7.214;2022-12-07T01:25:54;82.35;;;40.85;;
30398;SDS011;17195;50.838;7.214;2022-12-07T01:28:20;47.58;;;28.23;;
30398;SDS011;17195;50.838;7.214;2022-12-07T01:30:54;94.40;;;45.85;;
30398;SDS011;17195;50.838;7.214;2022-12-07T01:33:31;82.78;;;42.88;;
30398;SDS011;17195;50.838;7.214;2022-12-07T01:36:06;55.78;;;31.33;;
30398;SDS011;17195;50.838;7.214;2022-12-07T01:38:37;58.00;;;32.42;;
30398;SDS011;17195;50.838;7.214;2022-12-07T01:41:03;64.35;;;35.53;;
30398;SDS011;17195;50.838;7.214;2022-12-07T01:43:29;54.92;;;30.90;;
30398;SDS011;17195;50.838;7.214;2022-12-07T01:45:57;58.53;;;35.17;;
30398;SDS011;17195;50.838;7.214;2022-12-07T01:48:27;55.97;;;33.17;;
30398;SDS011;17195;50.838;7.214;2022-12-07T01:50:57;47.88;;;28.75;;
30398;SDS011;17195;50.838;7.214;2022-12-07T01:53:26;46.17;;;28.52;;
30398;SDS011;17195;50.838;7.214;2022-12-07T01:55:55;36.85;;;24.33;;
30398;SDS011;17195;50.838;7.214;2022-12-07T01:58:23;43.78;;;28.25;;
30398;SDS011;17195;50.838;7.214;2022-12-07T02:00:49;55.78;;;33.03;;
30398;SDS011;17195;50.838;7.214;2022-12-07T02:03:17;39.20;;;25.40;;
30398;SDS011;17195;50.838;7.214;2022-12-07T02:05:44;48.55;;;30.92;;
30398;SDS011;17195;50.838;7.214;2022-12-07T02:08:11;39.58;;;26.45;;
30398;SDS011;17195;50.838;7.214;2022-12-07T02:10:37;46.85;;;25.60;;
30398;SDS011;17195;50.838;7.214;2022-12-07T02:13:04;42.00;;;26.42;;
30398;SDS011;17195;50.838;7.214;2022-12-07T02:18:35;44.65;;;26.63;;
30398;SDS011;17195;50.838;7.214;2022-12-07T02:23:52;43.47;;;25.50;;
30398;SDS011;17195;50.838;7.214;2022-12-07T02:37:41;47.45;;;27.85;;
30398;SDS011;17195;50.838;7.214;2022-12-07T02:42:45;44.60;;;27.40;;
30398;SDS011;17195;50.838;7.214;2022-12-07T02:45:15;47.78;;;29.00;;
30398;SDS011;17195;50.838;7.214;2022-12-07T02:47:45;46.05;;;28.17;;
30398;SDS011;17195;50.838;7.214;2022-12-07T02:50:15;43.78;;;27.40;;
30398;SDS011;17195;50.838;7.214;2022-12-07T02:52:44;48.40;;;28.67;;
30398;SDS011;17195;50.838;7.214;2022-12-07T02:55:09;44.28;;;27.02;;
30398;SDS011;17195;50.838;7.214;2022-12-07T02:57:49;44.53;;;27.65;;
30398;SDS011;17195;50.838;7.214;2022-12-07T03:00:31;43.63;;;26.35;;
30398;SDS011;17195;50.838;7.214;2022-12-07T03:03:11;41.90;;;25.63;;
30398;SDS011;17195;50.838;7.214;2022-12-07T03:11:13;42.70;;;25.90;;
30398;SDS011;17195;50.838;7.214;2022-12-07T03:13:50;41.67;;;25.48;;
30398;SDS011;17195;50.838;7.214;2022-12-07T03:16:26;43.05;;;25.50;;
30398;SDS011;17195;50.838;7.214;2022-12-07T03:18:57;43.70;;;26.23;;
30398;SDS011;17195;50.838;7.214;2022-12-07T03:21:32;42.72;;;26.45;;
30398;SDS011;17195;50.838;7.214;2022-12-07T03:24:03;36.55;;;24.27;;
30398;SDS011;17195;50.838;7.214;2022-12-07T03:26:37;45.60;;;26.88;;
30398;SDS011;17195;50.838;7.214;2022-12-07T03:29:14;44.42;;;27.50;;
30398;SDS011;17195;50.838;7.214;2022-12-07T03:31:48;40.50;;;25.15;;
30398;SDS011;17195;50.838;7.214;2022-12-07T03:34:26;47.47;;;27.10;;
30398;SDS011;17195;50.838;7.214;2022-12-07T03:37:06;45.33;;;27.80;;
30398;SDS011;17195;50.838;7.214;2022-12-07T03:42:11;43.65;;;25.88;;
30398;SDS011;17195;50.838;7.214;2022-12-07T03:44:37;46.33;;;26.60;;
30398;SDS011;17195;50.838;7.214;2022-12-07T03:49:54;46.08;;;25.65;;
30398;SDS011;17195;50.838;7.214;2022-12-07T03:52:25;44.42;;;26.27;;
30398;SDS011;17195;50.838;7.214;2022-12-07T03:55:04;42.72;;;26.38;;
30398;SDS011;17195;50.838;7.214;2022-12-07T03:57:53;45.85;;;27.30;;
30398;SDS011;17195;50.838;7.214;2022-12-07T04:00:24;43.78;;;26.95;;
30398;SDS011;17195;50.838;7.214;2022-12-07T04:02:51;43.85;;;27.13;;
30398;SDS011;17195;50.838;7.214;2022-12-07T04:05:18;47.13;;;28.02;;
30398;SDS011;17195;50.838;7.214;2022-12-07T04:07:44;45.85;;;26.77;;
30398;SDS011;17195;50.838;7.214;2022-12-07T04:10:10;46.58;;;27.08;;
30398;SDS011;17195;50.838;7.214;2022-12-07T04:12:36;45.15;;;26.58;;
30398;SDS011;17195;50.838;7.214;2022-12-07T04:15:02;45.53;;;26.67;;
30398;SDS011;17195;50.838;7.214;2022-12-07T04:17:28;43.85;;;26.33;;
30398;SDS011;17195;50.838;7.214;2022-12-07T04:19:53;49.53;;;26.80;;
30398;SDS011;17195;50.838;7.214;2022-12-07T04:22:19;45.25;;;28.33;;
30398;SDS011;17195;50.838;7.214;2022-12-07T04:24:45;44.50;;;27.30;;
30398;SDS011;17195;50.838;7.214;2022-12-07T04:27:10;45.28;;;28.55;;
30398;SDS011;17195;50.838;7.214;2022-12-07T04:29:36;47.17;;;25.80;;
30398;SDS011;17195;50.838;7.214;2022-12-07T04:32:01;42.67;;;26.83;;
30398;SDS011;17195;50.838;7.214;2022-12-07T04:34:27;39.85;;;26.10;;
30398;SDS011;17195;50.838;7.214;2022-12-07T04:36:52;49.30;;;28.65;;
30398;SDS011;17195;50.838;7.214;2022-12-07T04:39:20;40.47;;;26.02;;
30398;SDS011;17195;50.838;7.214;2022-12-07T04:41:47;45.45;;;27.60;;
30398;SDS011;17195;50.838;7.214;2022-12-07T04:44:13;43.10;;;26.40;;
30398;SDS011;17195;50.838;7.214;2022-12-07T04:46:40;44.92;;;25.67;;
30398;SDS011;17195;50.838;7.214;2022-12-07T04:49:06;41.75;;;25.67;;
30398;SDS011;17195;50.838;7.214;2022-12-07T04:51:32;39.85;;;25.85;;
30398;SDS011;17195;50.838;7.214;2022-12-07T04:53:57;39.60;;;25.20;;
30398;SDS011;17195;50.838;7.214;2022-12-07T04:56:23;40.38;;;24.23;;
30398;SDS011;17195;50.838;7.214;2022-12-07T04:58:49;42.45;;;24.10;;
30398;SDS011;17195;50.838;7.214;2022-12-07T05:01:17;37.13;;;24.20;;
30398;SDS011;17195;50.838;7.214;2022-12-07T05:03:43;41.22;;;25.45;;
30398;SDS011;17195;50.838;7.214;2022-12-07T05:06:09;43.60;;;27.42;;
30398;SDS011;17195;50.838;7.214;2022-12-07T05:08:35;41.25;;;25.13;;
30398;SDS011;17195;50.838;7.214;2022-12-07T05:11:02;40.92;;;25.48;;
30398;SDS011;17195;50.838;7.214;2022-12-07T05:13:28;39.10;;;23.83;;
30398;SDS011;17195;50.838;7.214;2022-12-07T05:15:54;39.50;;;24.08;;
30398;SDS011;17195;50.838;7.214;2022-12-07T05:18:19;40.25;;;23.92;;
30398;SDS011;17195;50.838;7.214;2022-12-07T05:20:45;39.10;;;23.88;;
30398;SDS011;17195;50.838;7.214;2022-12-07T05:23:11;37.42;;;23.80;;
30398;SDS011;17195;50.838;7.214;2022-12-07T05:25:36;39.75;;;22.52;;
30398;SDS011;17195;50.838;7.214;2022-12-07T05:28:02;44.08;;;24.10;;
30398;SDS011;17195;50.838;7.214;2022-12-07T05:30:28;40.78;;;23.40;;
30398;SDS011;17195;50.838;7.214;2022-12-07T05:32:54;36.97;;;23.67;;
30398;SDS011;17195;50.838;7.214;2022-12-07T05:35:20;42.47;;;24.52;;
30398;SDS011;17195;50.838;7.214;2022-12-07T05:37:46;35.10;;;22.05;;
30398;SDS011;17195;50.838;7.214;2022-12-07T05:40:12;40.38;;;22.90;;
30398;SDS011;17195;50.838;7.214;2022-12-07T05:42:38;36.40;;;23.67;;
30398;SDS011;17195;50.838;7.214;2022-12-07T05:45:04;36.10;;;22.45;;
30398;SDS011;17195;50.838;7.214;2022-12-07T05:47:30;37.58;;;22.77;;
30398;SDS011;17195;50.838;7.214;2022-12-07T05:49:56;33.95;;;21.40;;
30398;SDS011;17195;50.838;7.214;2022-12-07T05:52:21;40.38;;;23.50;;
30398;SDS011;17195;50.838;7.214;2022-12-07T05:54:47;38.95;;;23.15;;
30398;SDS011;17195;50.838;7.214;2022-12-07T05:57:13;38.70;;;22.40;;
30398;SDS011;17195;50.838;7.214;2022-12-07T05:59:39;38.65;;;22.13;;
30398;SDS011;17195;50.838;7.214;2022-12-07T06:02:06;43.33;;;22.73;;
30398;SDS011;17195;50.838;7.214;2022-12-07T06:04:37;33.33;;;20.95;;
30398;SDS011;17195;50.838;7.214;2022-12-07T06:07:05;39.63;;;23.77;;
30398;SDS011;17195;50.838;7.214;2022-12-07T06:09:31;46.75;;;24.02;;
30398;SDS011;17195;50.838;7.214;2022-12-07T06:11:57;43.40;;;23.73;;
30398;SDS011;17195;50.838;7.214;2022-12-07T06:14:41;40.27;;;24.13;;
30398;SDS011;17195;50.838;7.214;2022-12-07T06:17:07;45.60;;;25.23;;
30398;SDS011;17195;50.838;7.214;2022-12-07T06:19:33;39.17;;;24.58;;
30398;SDS011;17195;50.838;7.214;2022-12-07T06:22:00;39.65;;;24.85;;
30398;SDS011;17195;50.838;7.214;2022-12-07T06:24:25;43.45;;;24.05;;
30398;SDS011;17195;50.838;7.214;2022-12-07T06:26:51;40.63;;;24.42;;
30398;SDS011;17195;50.838;7.214;2022-12-07T06:29:17;38.33;;;23.35;;
30398;SDS011;17195;50.838;7.214;2022-12-07T06:31:43;44.38;;;24.85;;
30398;SDS011;17195;50.838;7.214;2022-12-07T06:34:10;36.97;;;23.50;;
30398;SDS011;17195;50.838;7.214;2022-12-07T06:36:38;35.85;;;22.52;;
30398;SDS011;17195;50.838;7.214;2022-12-07T06:39:03;38.58;;;22.80;;
30398;SDS011;17195;50.838;7.214;2022-12-07T06:41:30;40.92;;;23.48;;
30398;SDS011;17195;50.838;7.214;2022-12-07T06:43:55;42.58;;;23.15;;
30398;SDS011;17195;50.838;7.214;2022-12-07T06:46:21;39.47;;;23.35;;
30398;SDS011;17195;50.838;7.214;2022-12-07T06:48:47;39.88;;;22.40;;
30398;SDS011;17195;50.838;7.214;2022-12-07T06:51:12;40.83;;;21.55;;
30398;SDS011;17195;50.838;7.214;2022-12-07T06:53:38;36.78;;;22.00;;
30398;SDS011;17195;50.838;7.214;2022-12-07T06:56:04;41.13;;;22.95;;
30398;SDS011;17195;50.838;7.214;2022-12-07T06:58:30;40.47;;;23.77;;
30398;SDS011;17195;50.838;7.214;2022-12-07T07:00:56;35.05;;;21.90;;
30398;SDS011;17195;50.838;7.214;2022-12-07T07:03:21;32.00;;;21.23;;
30398;SDS011;17195;50.838;7.214;2022-12-07T07:05:47;36.47;;;20.33;;
30398;SDS011;17195;50.838;7.214;2022-12-07T07:08:13;36.25;;;20.63;;
30398;SDS011;17195;50.838;7.214;2022-12-07T07:10:39;34.72;;;21.70;;
30398;SDS011;17195;50.838;7.214;2022-12-07T07:13:05;37.28;;;20.38;;
30398;SDS011;17195;50.838;7.214;2022-12-07T07:15:32;32.05;;;20.88;;
30398;SDS011;17195;50.838;7.214;2022-12-07T07:17:58;37.40;;;21.27;;
30398;SDS011;17195;50.838;7.214;2022-12-07T07:20:24;35.92;;;21.02;;
30398;SDS011;17195;50.838;7.214;2022-12-07T07:22:49;37.85;;;22.40;;
30398;SDS011;17195;50.838;7.214;2022-12-07T07:25:15;42.17;;;23.83;;
30398;SDS011;17195;50.838;7.214;2022-12-07T07:27:41;40.20;;;22.13;;
30398;SDS011;17195;50.838;7.214;2022-12-07T07:30:07;38.00;;;22.75;;
30398;SDS011;17195;50.838;7.214;2022-12-07T07:32:33;49.08;;;24.10;;
30398;SDS011;17195;50.838;7.214;2022-12-07T07:34:59;43.80;;;22.55;;
30398;SDS011;17195;50.838;7.214;2022-12-07T07:37:25;38.88;;;25.50;;
30398;SDS011;17195;50.838;7.214;2022-12-07T07:39:51;43.47;;;25.27;;
30398;SDS011;17195;50.838;7.214;2022-12-07T07:42:16;38.65;;;23.85;;
30398;SDS011;17195;50.838;7.214;2022-12-07T07:44:42;47.00;;;25.35;;
30398;SDS011;17195;50.838;7.214;2022-12-07T07:47:08;43.22;;;24.40;;
30398;SDS011;17195;50.838;7.214;2022-12-07T07:49:33;42.25;;;25.90;;
30398;SDS011;17195;50.838;7.214;2022-12-07T07:51:59;43.25;;;25.40;;
30398;SDS011;17195;50.838;7.214;2022-12-07T07:54:24;39.53;;;23.35;;
30398;SDS011;17195;50.838;7.214;2022-12-07T07:56:50;43.55;;;25.50;;
30398;SDS011;17195;50.838;7.214;2022-12-07T07:59:16;40.42;;;25.27;;
30398;SDS011;17195;50.838;7.214;2022-12-07T08:01:42;41.65;;;25.20;;
30398;SDS011;17195;50.838;7.214;2022-12-07T08:04:07;41.40;;;24.73;;
30398;SDS011;17195;50.838;7.214;2022-12-07T08:06:33;41.90;;;25.33;;
30398;SDS011;17195;50.838;7.214;2022-12-07T08:08:59;42.85;;;24.23;;
30398;SDS011;17195;50.838;7.214;2022-12-07T08:11:24;38.30;;;24.23;;
30398;SDS011;17195;50.838;7.214;2022-12-07T08:13:50;39.80;;;23.30;;
30398;SDS011;17195;50.838;7.214;2022-12-07T08:16:15;40.28;;;25.13;;
30398;SDS011;17195;50.838;7.214;2022-12-07T08:18:41;41.45;;;25.05;;
30398;SDS011;17195;50.838;7.214;2022-12-07T08:21:07;44.58;;;24.90;;
30398;SDS011;17195;50.838;7.214;2022-12-07T08:23:36;44.33;;;25.45;;
30398;SDS011;17195;50.838;7.214;2022-12-07T08:26:06;41.65;;;25.60;;
30398;SDS011;17195;50.838;7.214;2022-12-07T08:28:33;43.72;;;25.17;;
30398;SDS011;17195;50.838;7.214;2022-12-07T08:31:00;40.90;;;24.60;;
30398;SDS011;17195;50.838;7.214;2022-12-07T08:33:30;38.35;;;23.98;;
30398;SDS011;17195;50.838;7.214;2022-12-07T08:36:00;40.28;;;24.83;;
30398;SDS011;17195;50.838;7.214;2022-12-07T08:38:36;36.67;;;23.05;;
30398;SDS011;17195;50.838;7.214;2022-12-07T08:41:03;36.20;;;24.23;;
30398;SDS011;17195;50.838;7.214;2022-12-07T08:43:29;38.33;;;22.48;;
30398;SDS011;17195;50.838;7.214;2022-12-07T08:48:39;39.55;;;23.35;;
30398;SDS011;17195;50.838;7.214;2022-12-07T08:51:09;37.03;;;22.92;;
30398;SDS011;17195;50.838;7.214;2022-12-07T08:53:35;38.83;;;22.90;;
30398;SDS011;17195;50.838;7.214;2022-12-07T08:56:02;37.00;;;22.73;;
30398;SDS011;17195;50.838;7.214;2022-12-07T08:58:28;37.90;;;23.05;;
30398;SDS011;17195;50.838;7.214;2022-12-07T09:00:54;41.28;;;24.35;;
30398;SDS011;17195;50.838;7.214;2022-12-07T09:03:19;38.15;;;23.08;;
30398;SDS011;17195;50.838;7.214;2022-12-07T09:05:45;38.22;;;22.77;;
30398;SDS011;17195;50.838;7.214;2022-12-07T09:08:10;35.20;;;23.55;;
30398;SDS011;17195;50.838;7.214;2022-12-07T09:10:36;36.72;;;22.42;;
30398;SDS011;17195;50.838;7.214;2022-12-07T09:13:02;36.95;;;21.90;;
30398;SDS011;17195;50.838;7.214;2022-12-07T09:15:28;34.10;;;22.00;;
30398;SDS011;17195;50.838;7.214;2022-12-07T09:17:54;34.33;;;21.92;;
30398;SDS011;17195;50.838;7.214;2022-12-07T09:20:20;37.85;;;23.17;;
30398;SDS011;17195;50.838;7.214;2022-12-07T09:22:45;40.45;;;22.40;;
30398;SDS011;17195;50.838;7.214;2022-12-07T09:25:11;39.58;;;21.95;;
30398;SDS011;17195;50.838;7.214;2022-12-07T09:27:37;34.03;;;21.42;;
30398;SDS011;17195;50.838;7.214;2022-12-07T09:30:03;29.08;;;19.88;;
30398;SDS011;17195;50.838;7.214;2022-12-07T09:32:29;35.00;;;22.40;;
30398;SDS011;17195;50.838;7.214;2022-12-07T09:34:55;31.58;;;20.15;;
30398;SDS011;17195;50.838;7.214;2022-12-07T09:37:21;31.38;;;20.17;;
30398;SDS011;17195;50.838;7.214;2022-12-07T09:39:46;35.17;;;20.98;;
30398;SDS011;17195;50.838;7.214;2022-12-07T09:42:18;36.75;;;21.00;;
30398;SDS011;17195;50.838;7.214;2022-12-07T09:44:54;29.52;;;18.95;;
30398;SDS011;17195;50.838;7.214;2022-12-07T09:47:21;31.17;;;19.58;;
30398;SDS011;17195;50.838;7.214;2022-12-07T09:49:46;30.90;;;19.80;;
30398;SDS011;17195;50.838;7.214;2022-12-07T09:54:45;33.92;;;20.10;;
30398;SDS011;17195;50.838;7.214;2022-12-07T09:57:13;36.10;;;18.75;;
30398;SDS011;17195;50.838;7.214;2022-12-07T09:59:39;24.65;;;17.52;;
30398;SDS011;17195;50.838;7.214;2022-12-07T10:03:08;29.40;;;18.95;;
30398;SDS011;17195;50.838;7.214;2022-12-07T10:05:03;27.58;;;17.23;;
30398;SDS011;17195;50.838;7.214;2022-12-07T10:07:31;32.00;;;17.75;;
30398;SDS011;17195;50.838;7.214;2022-12-07T10:09:56;29.23;;;17.73;;
30398;SDS011;17195;50.838;7.214;2022-12-07T10:12:22;29.90;;;16.45;;
30398;SDS011;17195;50.838;7.214;2022-12-07T10:14:56;27.13;;;17.25;;
30398;SDS011;17195;50.838;7.214;2022-12-07T10:22:36;38.28;;;21.13;;
30398;SDS011;17195;50.838;7.214;2022-12-07T10:25:08;27.10;;;16.60;;
30398;SDS011;17195;50.838;7.214;2022-12-07T10:27:44;30.15;;;16.38;;
30398;SDS011;17195;50.838;7.214;2022-12-07T10:30:23;25.92;;;14.88;;
30398;SDS011;17195;50.838;7.214;2022-12-07T10:32:48;24.23;;;15.13;;
30398;SDS011;17195;50.838;7.214;2022-12-07T10:37:53;29.13;;;15.30;;
30398;SDS011;17195;50.838;7.214;2022-12-07T10:51:05;28.50;;;15.00;;
30398;SDS011;17195;50.838;7.214;2022-12-07T10:59:41;31.63;;;14.15;;
30398;SDS011;17195;50.838;7.214;2022-12-07T11:02:32;26.55;;;17.40;;
30398;SDS011;17195;50.838;7.214;2022-12-07T11:05:25;24.05;;;14.52;;
30398;SDS011;17195;50.838;7.214;2022-12-07T11:16:47;20.00;;;10.90;;
30398;SDS011;17195;50.838;7.214;2022-12-07T11:22:14;25.02;;;15.05;;
30398;SDS011;17195;50.838;7.214;2022-12-07T11:27:49;20.90;;;11.23;;
30398;SDS011;17195;50.838;7.214;2022-12-07T11:30:23;19.20;;;10.93;;
30398;SDS011;17195;50.838;7.214;2022-12-07T11:33:15;21.80;;;11.00;;
30398;SDS011;17195;50.838;7.214;2022-12-07T11:38:23;18.63;;;10.20;;
30398;SDS011;17195;50.838;7.214;2022-12-07T11:41:03;15.73;;;8.00;;
30398;SDS011;17195;50.838;7.214;2022-12-07T11:43:53;18.33;;;8.65;;
30398;SDS011;17195;50.838;7.214;2022-12-07T11:46:35;22.77;;;8.75;;
30398;SDS011;17195;50.838;7.214;2022-12-07T11:49:21;14.50;;;9.52;;
30398;SDS011;17195;50.838;7.214;2022-12-07T11:51:49;24.45;;;9.95;;
30398;SDS011;17195;50.838;7.214;2022-12-07T11:54:19;17.10;;;9.25;;
30398;SDS011;17195;50.838;7.214;2022-12-07T11:56:49;22.20;;;8.48;;
30398;SDS011;17195;50.838;7.214;2022-12-07T11:59:18;16.10;;;7.80;;
30398;SDS011;17195;50.838;7.214;2022-12-07T12:02:03;13.75;;;7.88;;
30398;SDS011;17195;50.838;7.214;2022-12-07T12:04:55;16.30;;;8.23;;
30398;SDS011;17195;50.838;7.214;2022-12-07T12:07:31;19.20;;;9.60;;
30398;SDS011;17195;50.838;7.214;2022-12-07T12:20:57;16.13;;;6.63;;
30398;SDS011;17195;50.838;7.214;2022-12-07T12:26:05;13.45;;;6.32;;
30398;SDS011;17195;50.838;7.214;2022-12-07T12:31:13;11.77;;;5.63;;
30398;SDS011;17195;50.838;7.214;2022-12-07T12:33:45;16.92;;;6.28;;
30398;SDS011;17195;50.838;7.214;2022-12-07T12:44:03;16.23;;;6.00;;
30398;SDS011;17195;50.838;7.214;2022-12-07T12:51:48;14.80;;;6.80;;
30398;SDS011;17195;50.838;7.214;2022-12-07T12:56:55;11.25;;;5.45;;
30398;SDS011;17195;50.838;7.214;2022-12-07T13:02:24;15.80;;;5.93;;
30398;SDS011;17195;50.838;7.214;2022-12-07T13:05:01;13.02;;;5.97;;
30398;SDS011;17195;50.838;7.214;2022-12-07T13:13:00;30.65;;;14.13;;
30398;SDS011;17195;50.838;7.214;2022-12-07T13:15:39;18.15;;;6.30;;
30398;SDS011;17195;50.838;7.214;2022-12-07T13:18:34;34.25;;;15.48;;
30398;SDS011;17195;50.838;7.214;2022-12-07T13:31:35;14.95;;;7.53;;
30398;SDS011;17195;50.838;7.214;2022-12-07T13:34:05;14.98;;;7.50;;
30398;SDS011;17195;50.838;7.214;2022-12-07T13:37:18;16.38;;;7.18;;
30398;SDS011;17195;50.838;7.214;2022-12-07T13:39:52;20.73;;;8.65;;
30398;SDS011;17195;50.838;7.214;2022-12-07T13:42:30;16.73;;;8.13;;
30398;SDS011;17195;50.838;7.214;2022-12-07T13:44:59;25.63;;;12.98;;
30398;SDS011;17195;50.838;7.214;2022-12-07T13:47:43;24.00;;;12.95;;
30398;SDS011;17195;50.838;7.214;2022-12-07T13:50:24;26.02;;;12.63;;
30398;SDS011;17195;50.838;7.214;2022-12-07T13:52:54;98.50;;;50.92;;
30398;SDS011;17195;50.838;7.214;2022-12-07T13:55:21;19.60;;;10.32;;
30398;SDS011;17195;50.838;7.214;2022-12-07T13:57:48;49.95;;;25.10;;
30398;SDS011;17195;50.838;7.214;2022-12-07T14:00:17;20.80;;;9.13;;
30398;SDS011;17195;50.838;7.214;2022-12-07T14:03:04;22.45;;;10.10;;
30398;SDS011;17195;50.838;7.214;2022-12-07T14:06:03;25.90;;;11.82;;
30398;SDS011;17195;50.838;7.214;2022-12-07T14:09:05;20.13;;;8.80;;
30398;SDS011;17195;50.838;7.214;2022-12-07T14:11:32;18.05;;;8.68;;
30398;SDS011;17195;50.838;7.214;2022-12-07T14:14:00;22.60;;;10.27;;
30398;SDS011;17195;50.838;7.214;2022-12-07T14:16:31;17.80;;;8.30;;
30398;SDS011;17195;50.838;7.214;2022-12-07T14:19:00;21.77;;;10.32;;
30398;SDS011;17195;50.838;7.214;2022-12-07T14:21:29;21.30;;;10.10;;
30398;SDS011;17195;50.838;7.214;2022-12-07T14:26:37;24.73;;;9.57;;
30398;SDS011;17195;50.838;7.214;2022-12-07T14:31:59;17.50;;;7.82;;
30398;SDS011;17195;50.838;7.214;2022-12-07T14:34:39;21.90;;;9.27;;
30398;SDS011;17195;50.838;7.214;2022-12-07T14:37:07;14.57;;;8.00;;
30398;SDS011;17195;50.838;7.214;2022-12-07T14:39:34;16.48;;;9.23;;
30398;SDS011;17195;50.838;7.214;2022-12-07T14:41:59;21.95;;;9.00;;
30398;SDS011;17195;50.838;7.214;2022-12-07T14:44:25;17.55;;;8.30;;
30398;SDS011;17195;50.838;7.214;2022-12-07T14:46:50;17.65;;;8.50;;
30398;SDS011;17195;50.838;7.214;2022-12-07T14:49:16;20.10;;;8.32;;
30398;SDS011;17195;50.838;7.214;2022-12-07T14:51:42;17.40;;;9.13;;
30398;SDS011;17195;50.838;7.214;2022-12-07T14:54:15;17.70;;;10.80;;
30398;SDS011;17195;50.838;7.214;2022-12-07T14:56:44;19.33;;;10.25;;
30398;SDS011;17195;50.838;7.214;2022-12-07T14:59:10;14.35;;;8.32;;
30398;SDS011;17195;50.838;7.214;2022-12-07T15:01:37;13.52;;;8.20;;
30398;SDS011;17195;50.838;7.214;2022-12-07T15:04:03;16.17;;;10.35;;
30398;SDS011;17195;50.838;7.214;2022-12-07T15:06:29;29.63;;;16.50;;
30398;SDS011;17195;50.838;7.214;2022-12-07T15:08:54;45.20;;;21.38;;
30398;SDS011;17195;50.838;7.214;2022-12-07T15:11:20;30.25;;;14.48;;
30398;SDS011;17195;50.838;7.214;2022-12-07T15:13:45;23.08;;;14.10;;
30398;SDS011;17195;50.838;7.214;2022-12-07T15:16:30;28.88;;;15.18;;
30398;SDS011;17195;50.838;7.214;2022-12-07T15:18:55;17.38;;;10.10;;
30398;SDS011;17195;50.838;7.214;2022-12-07T15:21:21;25.40;;;11.10;;
30398;SDS011;17195;50.838;7.214;2022-12-07T15:23:47;22.55;;;12.43;;
30398;SDS011;17195;50.838;7.214;2022-12-07T15:26:12;26.98;;;14.57;;
30398;SDS011;17195;50.838;7.214;2022-12-07T15:28:38;21.50;;;10.45;;
30398;SDS011;17195;50.838;7.214;2022-12-07T15:31:10;23.58;;;10.45;;
30398;SDS011;17195;50.838;7.214;2022-12-07T15:33:36;28.63;;;14.23;;
30398;SDS011;17195;50.838;7.214;2022-12-07T15:36:02;21.80;;;13.07;;
30398;SDS011;17195;50.838;7.214;2022-12-07T15:38:28;21.38;;;12.15;;
30398;SDS011;17195;50.838;7.214;2022-12-07T15:40:55;20.70;;;12.35;;
30398;SDS011;17195;50.838;7.214;2022-12-07T15:43:21;16.63;;;12.20;;
30398;SDS011;17195;50.838;7.214;2022-12-07T15:46:05;131.63;;;47.05;;
30398;SDS011;17195;50.838;7.214;2022-12-07T15:48:31;42.22;;;22.48;;
30398;SDS011;17195;50.838;7.214;2022-12-07T15:51:03;22.35;;;12.13;;
30398;SDS011;17195;50.838;7.214;2022-12-07T15:53:33;27.13;;;14.90;;
30398;SDS011;17195;50.838;7.214;2022-12-07T15:55:59;29.30;;;17.05;;
30398;SDS011;17195;50.838;7.214;2022-12-07T15:58:25;20.75;;;14.05;;
30398;SDS011;17195;50.838;7.214;2022-12-07T16:00:51;24.90;;;13.27;;
30398;SDS011;17195;50.838;7.214;2022-12-07T16:03:18;18.13;;;10.38;;
30398;SDS011;17195;50.838;7.214;2022-12-07T16:05:49;15.63;;;8.65;;
30398;SDS011;17195;50.838;7.214;2022-12-07T16:08:18;12.52;;;8.15;;
30398;SDS011;17195;50.838;7.214;2022-12-07T16:10:44;10.55;;;6.22;;
30398;SDS011;17195;50.838;7.214;2022-12-07T16:13:10;14.07;;;9.38;;
30398;SDS011;17195;50.838;7.214;2022-12-07T16:15:39;11.13;;;7.07;;
30398;SDS011;17195;50.838;7.214;2022-12-07T16:18:05;18.58;;;9.95;;
30398;SDS011;17195;50.838;7.214;2022-12-07T16:20:31;11.80;;;5.70;;
30398;SDS011;17195;50.838;7.214;2022-12-07T16:22:56;7.45;;;3.92;;
30398;SDS011;17195;50.838;7.214;2022-12-07T16:25:22;6.47;;;5.30;;
30398;SDS011;17195;50.838;7.214;2022-12-07T16:27:48;7.35;;;4.75;;
30398;SDS011;17195;50.838;7.214;2022-12-07T16:30:14;15.48;;;8.02;;
30398;SDS011;17195;50.838;7.214;2022-12-07T16:32:41;22.75;;;10.25;;
30398;SDS011;17195;50.838;7.214;2022-12-07T16:35:07;25.60;;;14.60;;
30398;SDS011;17195;50.838;7.214;2022-12-07T16:37:33;21.63;;;9.93;;
30398;SDS011;17195;50.838;7.214;2022-12-07T16:39:58;18.88;;;9.38;;
30398;SDS011;17195;50.838;7.214;2022-12-07T16:42:24;45.35;;;24.35;;
30398;SDS011;17195;50.838;7.214;2022-12-07T16:44:49;17.80;;;10.77;;
30398;SDS011;17195;50.838;7.214;2022-12-07T16:47:15;21.98;;;11.02;;
30398;SDS011;17195;50.838;7.214;2022-12-07T16:49:41;44.20;;;23.95;;